Impacts TAF Board
For situational awareness. Not to be used for flight planning purposes.
IDs:

KDRO - Durango/La Plata Cnt, CO, US

Issued at 1736 UTC 08 Aug 2020
Updated at 2108 UTC 08 Aug 2020
Potential Impact None Slight Moderate High
Time2053Z 08/22Z 08/23Z 09/00Z 09/01Z 09/02Z 09/03Z 09/04Z 09/05Z 09/06Z 09/07Z 09/08Z 09/09Z 09/10Z>>
Type OBS PRVL PRVL PRVL PRVL PRVL PRVL PRVL PRVL PRVL PRVL PRVL PRVL PRVL
VIS 10 >6 >6 >6 >6 >6 >6 >6 >6 >6 >6 >6 >6 >6
CIG -- -- -- -- -- -- -- -- -- -- -- -- -- --
Cover CLR SCT SCT SCT SCT FEW FEW FEW FEW SKC SKC SKC SKC SKC
FltCat VFR VFR VFR VFR VFR VFR VFR VFR VFR VFR VFR VFR VFR VFR
WX -- -- -- -- -- -- -- -- -- -- -- -- -- --
WDir VRB 250 250 250 250 300 300 300 300 330 330 330 330 330
WSpd 5 13 13 13 13 8 8 8 8 4 4 4 4 4
WGst 19 21 21 21 21 -- -- -- -- -- -- -- -- --
Raw TAF
KDRO 081736Z 0818/0918 27006KT P6SM FEW150 FEW250
  FM082100 25013G21KT P6SM FEW120 SCT250
  FM090200 30008KT P6SM FEW250
  FM090600 33004KT P6SM SKC


Raw METAR
KDRO 082053Z AUTO VRB05G19KT 10SM CLR 29/M02 A3028 RMK AO2 SLP165 T02941022 58012
KDRO 081953Z AUTO 29011G21KT 10SM CLR 30/M02 A3030 RMK AO2 SLP164 T03001017
KDRO 081853Z AUTO 26009G20KT 10SM CLR 29/M01 A3031 RMK AO2 SLP172 T02891011

METAR Board
Radar Display
Forecast Discussion
For situational awareness. Not to be used for flight planning purposes.